Time;durP1;ratioP1;P1;durP2;ratioP2;P2;SDS_P1;SDS_P2;PMS_P1;PMS_P2;Temp;Humidity;BMP_temperature;BMP_pressure;BME280_temperature;BME280_humidity;BME280_pressure;Samples;Min_cycle;Max_cycle;Signal;HPM_P1;HPM_P2
2023/02/04 00:00:47;;;;;;;3.17;1.70;;;4.80;99.90;;;;;;5040327;28;20033;-56
2023/02/04 00:03:33;;;;;;;6.15;1.63;;;4.80;99.90;;;;;;5040816;28;20104;-56
2023/02/04 00:06:19;;;;;;;2.72;1.67;;;4.80;99.90;;;;;;5040498;28;20034;-55
2023/02/04 00:09:08;;;;;;;2.20;1.77;;;4.80;99.90;;;;;;5038008;28;20030;-58
2023/02/04 00:11:54;;;;;;;3.22;2.00;;;4.80;99.90;;;;;;5025813;28;20033;-58
2023/02/04 00:14:40;;;;;;;3.80;2.20;;;4.80;99.90;;;;;;5022234;28;20056;-55
2023/02/04 00:17:26;;;;;;;2.90;2.03;;;4.80;99.90;;;;;;5020940;28;20102;-54
2023/02/04 00:20:12;;;;;;;2.90;1.98;;;4.80;99.90;;;;;;5024845;28;20040;-55
2023/02/04 00:22:58;;;;;;;2.58;2.20;;;4.80;99.90;;;;;;5026048;28;20033;-55
2023/02/04 00:25:44;;;;;;;3.97;2.42;;;4.80;99.90;;;;;;5039189;28;20089;-55
2023/02/04 00:28:33;;;;;;;4.13;2.40;;;4.80;99.90;;;;;;5037443;28;20045;-55
2023/02/04 00:31:18;;;;;;;4.90;2.05;;;4.90;99.90;;;;;;5024744;28;20029;-55
2023/02/04 00:34:04;;;;;;;3.10;2.30;;;4.90;99.90;;;;;;5042101;28;20040;-54
2023/02/04 00:36:50;;;;;;;4.32;2.30;;;4.90;99.90;;;;;;5040061;28;20022;-55
2023/02/04 00:39:40;;;;;;;3.72;2.03;;;4.90;99.90;;;;;;5025804;28;20026;-55
2023/02/04 00:42:26;;;;;;;2.13;1.92;;;4.90;99.90;;;;;;5025184;28;20033;-58
2023/02/04 00:45:12;;;;;;;4.72;2.00;;;4.80;99.90;;;;;;5026128;28;20101;-58
2023/02/04 00:47:58;;;;;;;6.30;3.10;;;4.90;99.90;;;;;;5037864;28;20036;-57
2023/02/04 00:50:44;;;;;;;2.97;2.13;;;4.80;99.90;;;;;;5039710;28;20038;-54
2023/02/04 00:53:30;;;;;;;3.33;1.98;;;4.70;99.90;;;;;;5024842;28;20079;-55
2023/02/04 00:56:16;;;;;;;2.50;2.30;;;4.70;99.90;;;;;;5037204;28;20038;-57
2023/02/04 00:59:02;;;;;;;4.03;2.20;;;4.80;99.90;;;;;;5025048;28;20034;-55
2023/02/04 01:01:48;;;;;;;3.72;2.03;;;4.80;99.90;;;;;;5021138;28;20030;-53
2023/02/04 01:04:34;;;;;;;6.32;2.10;;;4.80;99.90;;;;;;5021777;28;20044;-53
2023/02/04 01:07:20;;;;;;;3.65;2.40;;;4.70;99.90;;;;;;5017694;28;20030;-53
2023/02/04 01:10:06;;;;;;;2.38;1.95;;;4.70;99.90;;;;;;5035161;28;20045;-58
2023/02/04 01:12:52;;;;;;;3.72;2.55;;;4.80;99.90;;;;;;5024967;28;20032;-53
2023/02/04 01:15:38;;;;;;;2.80;2.53;;;4.80;99.90;;;;;;5006137;28;20034;-56
2023/02/04 01:18:24;;;;;;;3.60;2.72;;;4.70;99.90;;;;;;5037675;28;20041;-53
2023/02/04 01:21:10;;;;;;;6.03;2.75;;;4.60;99.90;;;;;;5022788;28;20034;-53
2023/02/04 01:23:56;;;;;;;4.55;2.60;;;4.50;99.90;;;;;;5024694;28;20104;-53
2023/02/04 01:26:42;;;;;;;2.83;2.45;;;4.60;99.90;;;;;;5021733;28;20032;-52
2023/02/04 01:29:28;;;;;;;7.00;3.33;;;4.60;99.90;;;;;;5036227;28;20037;-52
2023/02/04 01:32:14;;;;;;;5.18;2.30;;;4.60;99.90;;;;;;5036050;28;20088;-55
2023/02/04 01:35:00;;;;;;;3.40;2.20;;;4.50;99.90;;;;;;5021307;28;20033;-57
2023/02/04 01:37:45;;;;;;;2.95;2.53;;;4.60;99.90;;;;;;5015022;28;20040;-57
2023/02/04 01:40:31;;;;;;;3.22;2.33;;;4.50;99.90;;;;;;5019238;28;20048;-54
2023/02/04 01:43:18;;;;;;;5.35;2.40;;;4.40;99.90;;;;;;5022606;28;20026;-52
2023/02/04 01:46:04;;;;;;;3.60;2.00;;;4.40;99.90;;;;;;5034940;28;20069;-53
2023/02/04 01:48:50;;;;;;;2.78;2.33;;;4.50;99.90;;;;;;5036265;28;20449;-56
2023/02/04 01:51:37;;;;;;;3.65;2.05;;;4.40;99.90;;;;;;5044001;28;20393;-51
2023/02/04 01:54:25;;;;;;;3.65;2.05;;;4.40;99.90;;;;;;5043386;28;20029;-55
2023/02/04 01:57:15;;;;;;;3.35;2.17;;;4.30;99.90;;;;;;5027585;28;20036;-54
2023/02/04 02:00:00;;;;;;;4.03;2.08;;;4.30;99.90;;;;;;5039870;28;20093;-53
2023/02/04 02:02:49;;;;;;;3.88;2.25;;;4.20;99.90;;;;;;5042494;28;20032;-55
2023/02/04 02:05:51;;;;;;;3.90;2.38;;;4.30;99.90;;;;;;5039801;28;20037;-54
2023/02/04 02:08:37;;;;;;;3.05;2.42;;;4.20;99.90;;;;;;5029728;28;20029;-53
2023/02/04 02:11:25;;;;;;;5.03;2.60;;;4.20;99.90;;;;;;5042231;28;20021;-57
2023/02/04 02:14:11;;;;;;;4.50;2.50;;;4.00;99.90;;;;;;5041733;28;20025;-56
2023/02/04 02:16:58;;;;;;;4.78;3.58;;;4.00;99.90;;;;;;5020898;28;20096;-55
2023/02/04 02:19:44;;;;;;;3.80;2.60;;;4.10;99.90;;;;;;5026334;28;20057;-55
2023/02/04 02:22:49;;;;;;;4.60;2.72;;;4.00;99.90;;;;;;5042291;28;20026;-54
2023/02/04 02:25:35;;;;;;;3.35;2.63;;;4.10;99.90;;;;;;5040584;28;20051;-51
2023/02/04 02:28:22;;;;;;;5.78;2.90;;;4.10;99.90;;;;;;5041034;28;20025;-53
2023/02/04 02:31:08;;;;;;;5.20;3.33;;;4.10;99.90;;;;;;5036076;28;20609;-53
2023/02/04 02:33:54;;;;;;;6.30;3.83;;;4.20;99.90;;;;;;5041183;28;20030;-50
2023/02/04 02:36:41;;;;;;;3.67;2.97;;;4.20;99.90;;;;;;5039685;28;20030;-51
2023/02/04 02:39:27;;;;;;;5.00;3.17;;;4.10;99.90;;;;;;5041117;28;20053;-52
2023/02/04 02:42:15;;;;;;;5.50;3.40;;;4.00;99.90;;;;;;5039350;28;20517;-53
2023/02/04 02:45:10;;;;;;;5.97;3.67;;;4.00;99.90;;;;;;5039539;28;20052;-53
2023/02/04 02:47:59;;;;;;;6.75;4.05;;;3.90;99.90;;;;;;5039410;28;20072;-56
2023/02/04 02:50:46;;;;;;;6.43;4.32;;;3.90;99.90;;;;;;5041915;28;20288;-55
2023/02/04 02:53:32;;;;;;;4.65;3.72;;;3.90;99.90;;;;;;5021960;28;20026;-54
2023/02/04 02:56:18;;;;;;;4.20;3.10;;;4.00;99.90;;;;;;4995531;28;20058;-54
2023/02/04 02:59:15;;;;;;;4.82;3.65;;;3.90;99.90;;;;;;5040947;28;20510;-53
2023/02/04 03:02:02;;;;;;;5.45;3.33;;;3.80;99.90;;;;;;5037009;28;20509;-52
2023/02/04 03:04:53;;;;;;;4.90;3.67;;;3.70;99.90;;;;;;5040095;28;20041;-54
2023/02/04 03:07:39;;;;;;;5.35;3.47;;;3.60;99.90;;;;;;5020543;28;20473;-51
2023/02/04 03:10:25;;;;;;;4.22;3.60;;;3.60;99.90;;;;;;5007792;28;20033;-52
2023/02/04 03:13:14;;;;;;;6.45;4.15;;;3.60;99.90;;;;;;5024680;28;20030;-53
2023/02/04 03:16:00;;;;;;;3.88;3.25;;;3.70;99.90;;;;;;5022661;28;20041;-50
2023/02/04 03:18:47;;;;;;;4.28;3.28;;;3.70;99.90;;;;;;5037870;28;20091;-53
2023/02/04 03:21:34;;;;;;;6.15;3.20;;;3.70;99.90;;;;;;5038056;28;20084;-53
2023/02/04 03:24:20;;;;;;;5.05;3.05;;;3.70;99.90;;;;;;5039109;28;20026;-51
2023/02/04 03:27:07;;;;;;;5.22;3.30;;;3.60;99.90;;;;;;5037290;28;20344;-54
2023/02/04 03:29:53;;;;;;;5.75;3.63;;;3.60;99.90;;;;;;5038312;28;20029;-54
2023/02/04 03:32:40;;;;;;;6.47;4.00;;;3.70;99.90;;;;;;5036369;28;20064;-53
2023/02/04 03:35:26;;;;;;;3.92;3.17;;;3.70;99.90;;;;;;5035176;28;20060;-51
2023/02/04 03:38:12;;;;;;;5.45;3.80;;;3.60;99.90;;;;;;5033989;28;20028;-53
2023/02/04 03:40:58;;;;;;;5.38;3.65;;;3.60;99.90;;;;;;5017168;28;20033;-50
2023/02/04 03:43:44;;;;;;;5.80;4.15;;;3.60;99.90;;;;;;5006937;28;20533;-52
2023/02/04 03:46:30;;;;;;;5.45;3.80;;;3.50;99.90;;;;;;5030697;28;20041;-53
2023/02/04 03:49:16;;;;;;;5.57;3.95;;;3.50;99.90;;;;;;5031443;28;20033;-53
2023/02/04 03:52:03;;;;;;;5.68;3.70;;;3.50;99.90;;;;;;5032627;28;20422;-53
2023/02/04 03:54:49;;;;;;;4.85;3.83;;;3.60;99.90;;;;;;5032711;28;20029;-53
2023/02/04 03:57:35;;;;;;;5.88;3.90;;;3.50;99.90;;;;;;5032366;28;20022;-56
2023/02/04 04:00:21;;;;;;;3.92;3.53;;;3.50;99.90;;;;;;5032224;28;20103;-53
2023/02/04 04:03:07;;;;;;;5.68;3.80;;;3.50;99.90;;;;;;5031970;28;20033;-54
2023/02/04 04:05:53;;;;;;;5.68;3.90;;;3.50;99.90;;;;;;5033046;28;20044;-53
2023/02/04 04:08:39;;;;;;;3.90;3.50;;;3.60;99.90;;;;;;5031657;28;20029;-56
2023/02/04 04:11:24;;;;;;;6.07;3.50;;;3.60;99.90;;;;;;5031182;28;20033;-54
2023/02/04 04:14:10;;;;;;;6.50;3.65;;;3.50;99.90;;;;;;5030955;28;20068;-53
2023/02/04 04:16:56;;;;;;;5.68;3.72;;;3.70;99.90;;;;;;5030698;28;20034;-55
2023/02/04 04:19:43;;;;;;;4.95;3.75;;;3.70;99.90;;;;;;5031072;28;20513;-52
2023/02/04 04:22:29;;;;;;;4.25;3.42;;;3.70;99.90;;;;;;5031923;28;20037;-50
2023/02/04 04:25:15;;;;;;;5.20;3.47;;;3.70;99.90;;;;;;5030553;28;20029;-52
2023/02/04 04:28:01;;;;;;;5.68;3.30;;;3.70;99.90;;;;;;5030986;28;20037;-53
2023/02/04 04:30:47;;;;;;;5.38;3.47;;;3.70;99.90;;;;;;5029918;28;20042;-52
2023/02/04 04:33:33;;;;;;;4.70;3.15;;;3.60;99.90;;;;;;5030703;28;20516;-49
2023/02/04 04:36:19;;;;;;;6.53;3.80;;;3.70;99.90;;;;;;5010224;28;20111;-55
2023/02/04 04:39:05;;;;;;;7.03;4.13;;;3.60;99.90;;;;;;4999657;28;20566;-51
2023/02/04 04:41:51;;;;;;;5.43;3.38;;;3.60;99.90;;;;;;5030528;28;20587;-50
2023/02/04 04:44:37;;;;;;;4.20;3.58;;;3.60;99.90;;;;;;5028507;28;20022;-52
2023/02/04 04:47:23;;;;;;;7.03;3.45;;;3.50;99.90;;;;;;5029619;28;20532;-50
2023/02/04 04:50:09;;;;;;;4.60;3.42;;;3.50;99.90;;;;;;5031595;28;20033;-55
2023/02/04 04:52:55;;;;;;;4.43;3.70;;;3.30;99.90;;;;;;5030799;28;20404;-56
2023/02/04 04:55:41;;;;;;;5.03;3.67;;;3.30;99.90;;;;;;5030846;28;20113;-54
2023/02/04 04:58:27;;;;;;;3.95;3.40;;;3.30;99.90;;;;;;5030654;28;20079;-49
2023/02/04 05:01:12;;;;;;;5.97;3.72;;;3.30;99.90;;;;;;5028894;28;20025;-54
2023/02/04 05:03:58;;;;;;;4.70;3.55;;;3.20;99.90;;;;;;5029348;28;20048;-50
2023/02/04 05:06:45;;;;;;;5.10;3.80;;;3.20;99.90;;;;;;5013574;28;20025;-53
2023/02/04 05:09:30;;;;;;;5.80;3.78;;;3.10;99.90;;;;;;5030967;28;20021;-49
2023/02/04 05:12:16;;;;;;;5.80;3.78;;;3.20;99.90;;;;;;5029667;28;20448;-50
2023/02/04 05:15:03;;;;;;;5.68;3.60;;;3.10;99.90;;;;;;5016771;28;20033;-50
2023/02/04 05:17:49;;;;;;;5.70;4.10;;;3.20;99.90;;;;;;5031300;28;20045;-51
2023/02/04 05:20:34;;;;;;;4.50;3.22;;;3.20;99.90;;;;;;5030074;28;20547;-53
2023/02/04 05:23:20;;;;;;;3.85;3.40;;;3.30;99.90;;;;;;5029485;28;20030;-53
2023/02/04 05:26:06;;;;;;;5.82;3.45;;;3.30;99.90;;;;;;5015818;28;20084;-47
2023/02/04 05:28:52;;;;;;;4.68;3.47;;;3.20;99.90;;;;;;5015605;28;20430;-45
2023/02/04 05:31:38;;;;;;;6.55;3.40;;;3.20;99.90;;;;;;5028785;28;20021;-49
2023/02/04 05:34:24;;;;;;;3.95;3.42;;;3.30;99.90;;;;;;5030561;28;20026;-48
2023/02/04 05:37:10;;;;;;;4.57;3.60;;;3.40;99.90;;;;;;5031393;28;20402;-50
2023/02/04 05:39:56;;;;;;;4.65;3.38;;;3.40;99.90;;;;;;5030391;28;20453;-47
2023/02/04 05:42:42;;;;;;;6.38;3.63;;;3.40;99.90;;;;;;5029035;28;20028;-49
2023/02/04 05:45:28;;;;;;;6.30;3.53;;;3.40;99.90;;;;;;5029734;28;20033;-47
2023/02/04 05:48:14;;;;;;;4.43;3.22;;;3.40;99.90;;;;;;5030173;28;20045;-50
2023/02/04 05:51:00;;;;;;;6.88;3.67;;;3.40;99.90;;;;;;5029881;28;20049;-51
2023/02/04 05:53:46;;;;;;;5.18;3.75;;;3.50;99.90;;;;;;5030042;28;20029;-49
2023/02/04 05:56:32;;;;;;;6.88;3.42;;;3.40;99.90;;;;;;5029951;28;20053;-54
2023/02/04 05:59:18;;;;;;;5.00;3.60;;;3.30;99.90;;;;;;5030119;28;20035;-47
2023/02/04 06:02:04;;;;;;;7.95;3.65;;;3.30;99.90;;;;;;5012733;28;20037;-50
2023/02/04 06:04:50;;;;;;;5.45;3.80;;;3.20;99.90;;;;;;5014891;28;20061;-56
2023/02/04 06:07:36;;;;;;;5.03;3.60;;;3.20;99.90;;;;;;5029362;28;20037;-53
2023/02/04 06:10:22;;;;;;;4.82;3.58;;;3.30;99.90;;;;;;5029462;28;20135;-53
2023/02/04 06:13:08;;;;;;;9.65;3.63;;;3.30;99.90;;;;;;5011246;28;20034;-51
2023/02/04 06:15:54;;;;;;;6.97;3.47;;;3.30;99.90;;;;;;5011014;28;20113;-49
2023/02/04 06:18:39;;;;;;;4.60;3.38;;;3.30;99.90;;;;;;5029649;28;20025;-49
2023/02/04 06:21:25;;;;;;;6.05;3.17;;;3.30;99.90;;;;;;5029464;28;20048;-49
2023/02/04 06:24:11;;;;;;;5.32;3.72;;;3.30;99.90;;;;;;5031170;28;20049;-48
2023/02/04 06:26:57;;;;;;;5.50;3.35;;;3.30;99.90;;;;;;5029688;28;20025;-48
2023/02/04 06:29:43;;;;;;;3.85;3.10;;;3.30;99.90;;;;;;5028621;28;20037;-50
2023/02/04 06:32:29;;;;;;;4.20;3.05;;;3.30;99.90;;;;;;5010082;28;20049;-51
2023/02/04 06:35:15;;;;;;;4.15;3.28;;;3.30;99.90;;;;;;5011444;28;20500;-52
2023/02/04 06:38:01;;;;;;;4.45;3.33;;;3.30;99.90;;;;;;5017569;28;20041;-52
2023/02/04 06:40:52;;;;;;;5.63;3.20;;;3.30;99.90;;;;;;5032937;28;20039;-49
2023/02/04 06:43:38;;;;;;;4.18;3.20;;;3.20;99.90;;;;;;5033997;28;20034;-52
2023/02/04 06:46:24;;;;;;;4.75;3.00;;;3.20;99.90;;;;;;5031746;28;20047;-51
2023/02/04 06:49:10;;;;;;;4.38;3.15;;;3.20;99.90;;;;;;5033469;28;20029;-48
2023/02/04 06:51:56;;;;;;;3.97;2.95;;;3.30;99.90;;;;;;4999324;28;20034;-47
2023/02/04 06:54:42;;;;;;;5.25;2.75;;;3.30;99.90;;;;;;5002043;28;20034;-50
2023/02/04 06:57:27;;;;;;;4.85;3.08;;;3.20;99.90;;;;;;5031749;28;20026;-53
2023/02/04 07:00:14;;;;;;;4.95;3.13;;;3.20;99.90;;;;;;5033288;28;20025;-49
2023/02/04 07:03:00;;;;;;;6.85;3.05;;;3.30;99.90;;;;;;5034750;28;20505;-51
2023/02/04 07:05:46;;;;;;;5.70;3.42;;;3.20;99.90;;;;;;5032803;28;20104;-51
2023/02/04 07:08:32;;;;;;;6.00;2.92;;;3.30;99.90;;;;;;5034739;28;20048;-53
2023/02/04 07:11:18;;;;;;;4.63;2.92;;;3.30;99.90;;;;;;5013385;28;20509;-55
2023/02/04 07:14:04;;;;;;;4.60;2.78;;;3.20;99.90;;;;;;5006717;28;20061;-54
2023/02/04 07:16:50;;;;;;;7.20;4.13;;;3.30;99.90;;;;;;5033526;28;20053;-50
2023/02/04 07:19:36;;;;;;;5.30;3.22;;;3.40;99.90;;;;;;5033255;28;20083;-50
2023/02/04 07:22:22;;;;;;;4.68;3.67;;;3.30;99.90;;;;;;5033306;28;20025;-47
2023/02/04 07:25:10;;;;;;;8.07;3.38;;;3.30;99.90;;;;;;5032275;28;20037;-49
2023/02/04 07:27:58;;;;;;;6.25;3.30;;;3.20;99.90;;;;;;5016898;28;20044;-54
2023/02/04 07:30:44;;;;;;;8.57;4.13;;;3.30;99.90;;;;;;5032424;28;20726;-49
2023/02/04 07:33:30;;;;;;;6.07;3.28;;;3.30;99.90;;;;;;5018645;28;20064;-53
2023/02/04 07:36:16;;;;;;;7.18;4.10;;;3.30;99.90;;;;;;5017729;28;20022;-50
2023/02/04 07:39:01;;;;;;;5.70;3.72;;;3.30;99.90;;;;;;5033254;28;20117;-50
2023/02/04 07:41:47;;;;;;;5.82;3.53;;;3.30;99.90;;;;;;5032905;28;20029;-50
2023/02/04 07:44:33;;;;;;;4.97;3.75;;;3.40;99.90;;;;;;5016721;28;20026;-52
2023/02/04 07:47:22;;;;;;;5.40;3.72;;;3.30;99.90;;;;;;5031432;28;20040;-49
2023/02/04 07:50:08;;;;;;;8.52;3.80;;;3.20;99.90;;;;;;5022499;28;20030;-52
2023/02/04 07:52:54;;;;;;;5.10;3.63;;;3.30;99.90;;;;;;5012116;28;20088;-57
2023/02/04 07:55:40;;;;;;;6.60;3.60;;;3.30;99.90;;;;;;4984438;28;20037;-54
2023/02/04 07:58:35;;;;;;;6.63;3.40;;;3.30;99.90;;;;;;5003131;28;20041;-51
2023/02/04 08:01:21;;;;;;;9.27;3.67;;;3.30;99.90;;;;;;5018112;28;20029;-51
2023/02/04 08:04:07;;;;;;;6.18;3.55;;;3.30;99.90;;;;;;5032892;28;20505;-49
2023/02/04 08:06:53;;;;;;;6.07;3.70;;;3.40;99.90;;;;;;5030792;28;20060;-49
2023/02/04 08:09:39;;;;;;;5.97;4.00;;;3.20;99.90;;;;;;5031580;28;20722;-53
2023/02/04 08:12:24;;;;;;;5.38;3.72;;;3.40;99.90;;;;;;5031958;28;20029;-48
2023/02/04 08:15:11;;;;;;;6.70;3.70;;;3.30;99.90;;;;;;5031113;28;20032;-53
2023/02/04 08:17:57;;;;;;;6.40;3.63;;;3.20;99.90;;;;;;5016547;28;20052;-52
2023/02/04 08:20:43;;;;;;;6.47;3.72;;;3.30;99.90;;;;;;5030177;28;20651;-53
2023/02/04 08:23:29;;;;;;;7.43;3.90;;;3.30;99.90;;;;;;5026420;28;20037;-51
2023/02/04 08:26:15;;;;;;;6.97;3.80;;;3.20;99.90;;;;;;5014849;28;20034;-54
2023/02/04 08:29:01;;;;;;;8.50;4.82;;;3.20;99.90;;;;;;5014332;28;20061;-55
2023/02/04 08:31:47;;;;;;;7.03;3.85;;;3.30;99.90;;;;;;5002006;28;20030;-50
2023/02/04 08:34:33;;;;;;;6.35;3.75;;;3.30;99.90;;;;;;5011116;28;20022;-51
2023/02/04 08:37:19;;;;;;;6.43;3.72;;;3.40;99.90;;;;;;4997514;28;20117;-50
2023/02/04 08:40:05;;;;;;;5.60;3.58;;;3.40;99.90;;;;;;5017214;28;20025;-49
2023/02/04 08:42:51;;;;;;;6.13;4.43;;;3.40;99.90;;;;;;5017032;28;20022;-54
2023/02/04 08:45:37;;;;;;;4.60;3.70;;;3.40;99.90;;;;;;5031882;28;20084;-51
2023/02/04 08:48:23;;;;;;;6.20;3.38;;;3.30;99.90;;;;;;5030815;28;20378;-54
2023/02/04 08:51:09;;;;;;;8.20;3.08;;;3.40;99.90;;;;;;5014646;28;20064;-50
2023/02/04 08:53:55;;;;;;;6.90;4.10;;;3.40;99.90;;;;;;5018897;28;20052;-52
2023/02/04 08:56:41;;;;;;;9.38;3.63;;;3.40;99.90;;;;;;5029466;28;20115;-50
2023/02/04 08:59:27;;;;;;;6.15;3.40;;;3.40;99.90;;;;;;5031463;28;20033;-54
2023/02/04 09:02:13;;;;;;;5.80;3.67;;;3.40;99.90;;;;;;5031519;28;20056;-57
2023/02/04 09:04:59;;;;;;;8.10;3.08;;;3.40;99.90;;;;;;5030972;28;20026;-49
2023/02/04 09:07:45;;;;;;;20.05;8.98;;;3.30;99.90;;;;;;5030138;28;20034;-52
2023/02/04 09:10:31;;;;;;;8.68;4.05;;;3.30;99.90;;;;;;5017379;28;20045;-52
2023/02/04 09:13:17;;;;;;;5.30;3.28;;;3.40;99.90;;;;;;5017028;28;20077;-52
2023/02/04 09:16:03;;;;;;;4.93;2.97;;;3.50;99.90;;;;;;5031919;28;20092;-55
2023/02/04 09:18:49;;;;;;;6.78;3.38;;;3.50;99.90;;;;;;5011689;28;20074;-49
2023/02/04 09:21:35;;;;;;;6.97;3.60;;;3.50;99.90;;;;;;5014787;28;20030;-51
2023/02/04 09:24:24;;;;;;;8.65;3.55;;;3.50;99.90;;;;;;5031166;28;20065;-58
2023/02/04 09:27:10;;;;;;;10.48;4.07;;;3.50;99.90;;;;;;5029410;28;20107;-49
2023/02/04 09:29:56;;;;;;;5.38;3.42;;;3.40;99.90;;;;;;5016516;28;20057;-49
2023/02/04 09:32:42;;;;;;;8.05;3.30;;;3.50;99.90;;;;;;5032506;28;20072;-53
2023/02/04 09:35:28;;;;;;;7.47;3.20;;;3.60;99.90;;;;;;5030216;28;20037;-53
2023/02/04 09:38:14;;;;;;;6.78;3.30;;;3.60;99.90;;;;;;5030675;28;20084;-55
2023/02/04 09:41:03;;;;;;;16.50;8.05;;;3.50;99.90;;;;;;5031310;28;20061;-56
2023/02/04 09:43:50;;;;;;;5.10;3.15;;;3.60;99.90;;;;;;5029667;28;20036;-50
2023/02/04 09:46:36;;;;;;;6.47;3.03;;;3.70;99.90;;;;;;5030297;28;20071;-54
2023/02/04 09:49:23;;;;;;;3.80;3.08;;;3.90;99.90;;;;;;5031166;28;20034;-54
2023/02/04 09:52:13;;;;;;;7.25;3.67;;;4.10;99.90;;;;;;5030635;28;20018;-52
2023/02/04 09:54:59;;;;;;;7.20;3.63;;;4.20;99.90;;;;;;5010217;28;20034;-61
2023/02/04 09:57:46;;;;;;;7.68;3.15;;;4.30;99.90;;;;;;5006351;28;20509;-50
2023/02/04 10:00:35;;;;;;;8.25;3.60;;;4.40;99.90;;;;;;5030124;28;20041;-54
2023/02/04 10:03:22;;;;;;;7.60;3.67;;;4.40;99.90;;;;;;5010650;28;20398;-53
2023/02/04 10:06:08;;;;;;;6.85;3.55;;;4.40;99.90;;;;;;5014735;28;20029;-52
2023/02/04 10:08:55;;;;;;;9.77;4.50;;;4.70;99.90;;;;;;5030830;28;20149;-53
2023/02/04 10:11:43;;;;;;;5.72;3.55;;;5.00;99.90;;;;;;5032207;28;20033;-55
2023/02/04 10:14:29;;;;;;;6.07;2.95;;;5.10;99.90;;;;;;5032181;28;20033;-53
2023/02/04 10:17:20;;;;;;;4.85;3.38;;;4.90;99.90;;;;;;5034137;28;20057;-55
2023/02/04 10:20:18;;;;;;;8.38;4.43;;;4.80;99.90;;;;;;5033898;28;20099;-52
2023/02/04 10:23:09;;;;;;;11.57;4.35;;;4.50;99.90;;;;;;5033035;28;20038;-56
2023/02/04 10:25:55;;;;;;;8.18;4.80;;;4.40;99.90;;;;;;5033051;28;20108;-55
2023/02/04 10:28:41;;;;;;;10.02;5.10;;;4.40;99.90;;;;;;5034835;28;20037;-55
2023/02/04 10:31:36;;;;;;;8.02;4.80;;;4.50;99.90;;;;;;5028890;28;20032;-51
2023/02/04 10:34:23;;;;;;;10.57;5.82;;;4.70;99.90;;;;;;5032659;28;20037;-55
2023/02/04 10:37:19;;;;;;;7.55;5.13;;;4.80;99.90;;;;;;5031499;28;20636;-54
2023/02/04 10:40:22;;;;;;;8.85;4.25;;;4.90;99.90;;;;;;5036569;28;20092;-52
2023/02/04 10:43:29;;;;;;;7.65;4.45;;;4.80;99.90;;;;;;5025688;28;20017;-54
2023/02/04 10:46:19;;;;;;;8.35;4.30;;;4.70;99.90;;;;;;5017940;28;20025;-48
2023/02/04 10:49:22;;;;;;;10.40;4.70;;;4.80;99.90;;;;;;5017611;28;20108;-50
2023/02/04 10:52:15;;;;;;;7.03;4.18;;;4.90;99.90;;;;;;5033033;28;20048;-52
2023/02/04 10:55:03;;;;;;;7.45;4.45;;;4.50;99.90;;;;;;5031542;28;20026;-50
2023/02/04 10:57:53;;;;;;;6.43;4.55;;;4.40;99.90;;;;;;5027795;28;20049;-52
2023/02/04 11:00:40;;;;;;;6.63;4.00;;;4.80;99.90;;;;;;5029770;28;20112;-52
2023/02/04 11:03:29;;;;;;;8.18;4.05;;;4.90;99.90;;;;;;5031886;28;20107;-53
2023/02/04 11:06:22;;;;;;;5.78;3.80;;;5.00;99.90;;;;;;5029408;28;20056;-51
2023/02/04 11:09:13;;;;;;;6.60;3.60;;;4.90;99.90;;;;;;5032175;28;20040;-52
2023/02/04 11:11:59;;;;;;;6.60;4.15;;;5.00;99.90;;;;;;5015810;28;20044;-52
2023/02/04 11:14:57;;;;;;;5.03;3.60;;;5.00;99.90;;;;;;5020718;28;20029;-53
2023/02/04 11:17:43;;;;;;;5.57;3.80;;;5.20;99.90;;;;;;5031333;28;20087;-50
2023/02/04 11:20:30;;;;;;;4.80;3.28;;;5.30;99.90;;;;;;5025661;28;20518;-54
2023/02/04 11:23:26;;;;;;;7.85;3.60;;;5.50;99.90;;;;;;5031198;28;20030;-56
2023/02/04 11:26:17;;;;;;;4.97;3.35;;;5.40;99.90;;;;;;5031827;28;20057;-56
2023/02/04 11:29:03;;;;;;;3.97;2.97;;;5.40;99.90;;;;;;5036003;28;20124;-54
2023/02/04 11:31:49;;;;;;;4.88;3.42;;;5.40;99.90;;;;;;5029855;28;20036;-55
2023/02/04 11:34:48;;;;;;;8.13;3.40;;;5.20;99.90;;;;;;5037387;28;20030;-57
2023/02/04 11:37:37;;;;;;;6.28;3.15;;;5.20;99.90;;;;;;5035709;28;20514;-52
2023/02/04 11:40:27;;;;;;;5.72;3.00;;;5.20;99.90;;;;;;5026314;28;20048;-53
2023/02/04 11:43:15;;;;;;;6.57;3.33;;;5.30;99.90;;;;;;5036217;28;20028;-55
2023/02/04 11:46:13;;;;;;;5.85;3.00;;;5.40;99.90;;;;;;5042164;28;20063;-56
2023/02/04 11:49:00;;;;;;;7.28;3.15;;;5.60;99.90;;;;;;5026483;28;20030;-54
2023/02/04 11:51:46;;;;;;;5.05;3.25;;;5.50;99.90;;;;;;5032370;28;20242;-53
2023/02/04 11:54:31;;;;;;;5.45;2.72;;;5.20;99.90;;;;;;5021375;28;20495;-54
2023/02/04 11:57:19;;;;;;;4.25;2.60;;;5.00;99.90;;;;;;5017778;28;20458;-52
2023/02/04 12:00:11;;;;;;;5.85;3.67;;;5.00;99.90;;;;;;5029800;28;20087;-53
2023/02/04 12:03:09;;;;;;;3.90;2.63;;;4.90;99.90;;;;;;5010444;28;20045;-52
2023/02/04 12:05:57;;;;;;;5.47;2.97;;;5.10;99.90;;;;;;5017023;28;20029;-54
2023/02/04 12:08:43;;;;;;;6.45;3.28;;;5.00;99.90;;;;;;5031757;28;20104;-56
2023/02/04 12:11:29;;;;;;;8.57;3.42;;;5.00;99.90;;;;;;5028009;28;20127;-52
2023/02/04 12:14:16;;;;;;;5.22;3.10;;;5.20;99.90;;;;;;5033403;28;20033;-51
2023/02/04 12:17:18;;;;;;;7.15;3.28;;;5.30;99.90;;;;;;5029962;28;20124;-52
2023/02/04 12:20:05;;;;;;;5.32;2.78;;;5.30;99.90;;;;;;5015077;28;20033;-56
2023/02/04 12:22:50;;;;;;;4.60;2.83;;;5.30;99.90;;;;;;5031590;28;20485;-51
2023/02/04 12:25:36;;;;;;;3.38;2.33;;;5.20;99.90;;;;;;5030996;28;20056;-55
2023/02/04 12:28:23;;;;;;;4.07;2.60;;;5.10;99.90;;;;;;5033120;28;20493;-54
2023/02/04 12:31:09;;;;;;;5.07;2.75;;;5.00;99.90;;;;;;5042034;28;20069;-54
2023/02/04 12:33:55;;;;;;;5.35;2.90;;;5.20;99.90;;;;;;5041208;28;20029;-56
2023/02/04 12:36:41;;;;;;;4.45;2.90;;;5.30;99.90;;;;;;5024784;28;20076;-53
2023/02/04 12:39:27;;;;;;;4.57;2.30;;;5.70;99.90;;;;;;5036205;28;20049;-57
2023/02/04 12:42:13;;;;;;;5.03;2.42;;;5.80;99.90;;;;;;5036290;28;20052;-56
2023/02/04 12:44:59;;;;;;;5.57;2.50;;;5.60;99.90;;;;;;5022345;28;20037;-52
2023/02/04 12:47:45;;;;;;;5.10;2.95;;;5.60;99.90;;;;;;5033875;28;20405;-56
2023/02/04 12:50:31;;;;;;;3.05;2.08;;;5.70;99.90;;;;;;5030960;28;20036;-55
2023/02/04 12:53:17;;;;;;;2.58;2.30;;;5.70;99.30;;;;;;5032318;28;20105;-61
2023/02/04 12:56:04;;;;;;;2.92;1.95;;;5.70;99.60;;;;;;5031283;28;20079;-57
2023/02/04 12:58:49;;;;;;;5.50;2.25;;;5.30;99.70;;;;;;5029464;28;20497;-55
2023/02/04 13:01:35;;;;;;;2.70;2.00;;;5.30;99.70;;;;;;5016307;28;20029;-58
2023/02/04 13:04:21;;;;;;;4.47;2.20;;;5.40;99.90;;;;;;5024718;28;20030;-55
2023/02/04 13:07:09;;;;;;;5.28;2.60;;;5.50;99.90;;;;;;5030137;28;20052;-54
2023/02/04 13:09:56;;;;;;;4.47;2.30;;;5.80;99.90;;;;;;5027926;28;20067;-54
2023/02/04 13:12:42;;;;;;;4.95;2.70;;;5.80;99.90;;;;;;5029610;28;20030;-55
2023/02/04 13:15:28;;;;;;;4.55;2.47;;;5.70;99.90;;;;;;5028612;28;20561;-58
2023/02/04 13:18:14;;;;;;;4.13;2.22;;;5.50;99.90;;;;;;5015007;28;20032;-59
2023/02/04 13:21:00;;;;;;;4.05;2.17;;;5.60;99.90;;;;;;5031256;28;20034;-57
2023/02/04 13:23:46;;;;;;;3.08;2.25;;;5.50;99.40;;;;;;5029779;28;20056;-53
2023/02/04 13:26:32;;;;;;;4.72;2.10;;;5.70;99.20;;;;;;5029224;28;20058;-56
2023/02/04 13:29:18;;;;;;;2.90;2.10;;;5.80;98.90;;;;;;5030979;28;20430;-53
2023/02/04 13:32:04;;;;;;;5.43;2.90;;;5.80;99.00;;;;;;5029548;28;20409;-56
2023/02/04 13:34:50;;;;;;;6.45;2.75;;;5.60;99.50;;;;;;5030561;28;20542;-55
2023/02/04 13:37:37;;;;;;;3.42;2.33;;;5.50;99.70;;;;;;5031582;28;20629;-55
2023/02/04 13:40:23;;;;;;;3.97;2.95;;;5.60;99.70;;;;;;5018312;28;20120;-56
2023/02/04 13:43:09;;;;;;;6.78;3.00;;;5.70;99.90;;;;;;5031817;28;20093;-59
2023/02/04 13:45:56;;;;;;;5.43;2.38;;;6.20;99.40;;;;;;5034434;28;20082;-52
2023/02/04 13:48:42;;;;;;;5.55;2.90;;;6.50;98.60;;;;;;5036136;28;20029;-57
2023/02/04 13:51:28;;;;;;;5.05;2.75;;;6.50;98.60;;;;;;5035720;28;20619;-51
2023/02/04 13:54:14;;;;;;;4.15;2.50;;;6.50;98.40;;;;;;5016090;28;20022;-54
2023/02/04 13:57:00;;;;;;;5.10;2.40;;;5.70;97.90;;;;;;5006677;28;20033;-56
2023/02/04 13:59:46;;;;;;;4.28;2.50;;;5.80;98.00;;;;;;5036118;28;20455;-52
2023/02/04 14:02:32;;;;;;;3.67;2.30;;;5.80;98.50;;;;;;5036075;28;20036;-55
2023/02/04 14:05:21;;;;;;;5.80;2.58;;;6.20;98.40;;;;;;5035556;28;20071;-59
2023/02/04 14:08:07;;;;;;;4.85;2.42;;;6.50;97.70;;;;;;5035936;28;20044;-58
2023/02/04 14:10:52;;;;;;;3.30;2.65;;;6.70;97.10;;;;;;5034575;28;20146;-55
2023/02/04 14:13:41;;;;;;;7.30;2.83;;;6.10;97.30;;;;;;5033229;28;20033;-49
2023/02/04 14:16:27;;;;;;;4.20;2.67;;;5.80;98.10;;;;;;5033047;28;20117;-47
2023/02/04 14:19:13;;;;;;;4.78;2.47;;;5.60;98.70;;;;;;5035054;28;20112;-46
2023/02/04 14:22:00;;;;;;;4.25;2.40;;;5.40;99.30;;;;;;5033352;28;20029;-55
2023/02/04 14:24:46;;;;;;;4.97;2.60;;;5.50;99.40;;;;;;5033087;28;20116;-54
2023/02/04 14:27:34;;;;;;;5.78;2.42;;;5.40;99.60;;;;;;5033163;28;20036;-51
2023/02/04 14:30:25;;;;;;;3.63;2.80;;;5.30;99.50;;;;;;5032009;28;20057;-50
2023/02/04 14:33:13;;;;;;;3.22;2.50;;;5.40;99.50;;;;;;5032579;28;20091;-47
2023/02/04 14:35:59;;;;;;;3.53;2.80;;;5.40;99.40;;;;;;5033241;28;20053;-48
2023/02/04 14:38:45;;;;;;;5.53;2.67;;;5.50;99.30;;;;;;5033195;28;20490;-47
2023/02/04 14:41:31;;;;;;;6.82;2.70;;;5.60;99.60;;;;;;5033258;28;20037;-46